Meknes, Morocco
Current Conditions -  °F | °C
As of 3:00 PM on Sunday 25 Jan 2015 (Local Time) from GMFM Reporting Station
Clear Clear  
Wind Chill: 55°   Ceiling: Unl
Heat Index: 55°   Visibility: 6mi
Dew Point: 43°   Wind: 5mph
Humidity: 63%   Direction: 320°NW
Pressure: 30.21"   Gusts: NA
Location:  33.9°N, 5.56°W
Report Text: GMFM 251400Z 32004KT CAVOK 13/06 Q1023 NOSIG
Loading
Personal Weather Stations






























Interactive Weather Map New forecast layout! Learn more

10-Day Weather Forecast

Advertisements
Track Severe Weather on mobile